Zhetygen Airport

Jump to: basic info | weather | comments

Related pages: nearby airports | nearby navaids

Basic information (top)

Location: lon 43.733101, lat 77.119400, elev 1,638 ft / 499 m msl
Status: small_airport

Weather (top)

Current conditions for Almaty Airport 23nm (43km) S (rec'd 2015/04/02 04:00Z):

UAAA 020400Z 26003MPS 1700 SN BR OVC019 M04/M05 Q1022 R88/2/0150 NOSIG

Airport forecast for Almaty Airport 23nm (43km) S (rec'd 2015/04/01 00:18Z):

TAF TAF UAAA 012300Z 0200/0224 16005MPS 3000 FU SCT050CB BKN100 TX05/0208Z TNM06/0201Z 
      TEMPO 0200/0204 0300 -SHSN FZFG VV002 
      BECMG 0205/0206 04006MPS 9999 NSW 
      TEMPO 0212/0224 0600 BR FU

Latest comments (top)

No comments yet for Zhetygen Airport

More... (top)

See also NOTAMs and nearby airports and navaids, or visit the Zhetygen Airport page at the main OurAirports website..